createdAt,value
2019-01-25T00:01:29.194Z,101554.32
2019-01-25T00:03:58.213Z,101554.78
2019-01-25T00:06:27.259Z,101551.21
2019-01-25T00:08:58.224Z,101548.41
2019-01-25T00:11:27.047Z,101548.92
2019-01-25T00:13:55.645Z,101548.81
2019-01-25T00:16:24.377Z,101539.98
2019-01-25T00:18:53.070Z,101540.09
2019-01-25T00:21:21.940Z,101542.77
2019-01-25T00:23:50.758Z,101545.63
2019-01-25T00:26:19.397Z,101548.00
2019-01-25T00:28:48.083Z,101549.74
2019-01-25T00:31:17.387Z,101558.31
2019-01-25T00:33:46.156Z,101544.87
2019-01-25T00:36:15.110Z,101552.41
2019-01-25T00:38:43.522Z,101552.30
2019-01-25T00:41:12.255Z,101549.02
2019-01-25T00:43:40.839Z,101553.28
2019-01-25T00:46:09.479Z,101546.51
2019-01-25T00:48:38.362Z,101551.03
2019-01-25T00:51:07.026Z,101546.51
2019-01-25T00:53:35.625Z,101550.61
2019-01-25T00:56:05.280Z,101548.52
2019-01-25T00:58:33.974Z,101543.70
2019-01-25T01:01:03.745Z,101542.09
2019-01-25T01:03:32.262Z,101548.36
2019-01-25T01:06:01.077Z,101550.61
2019-01-25T01:08:30.828Z,101546.61
2019-01-25T01:10:59.513Z,101547.29
2019-01-25T01:13:28.242Z,101547.70
2019-01-25T01:15:56.930Z,101550.36
2019-01-25T01:18:25.462Z,101552.16
2019-01-25T01:20:53.995Z,101556.72
2019-01-25T01:23:22.853Z,101559.72
2019-01-25T01:25:53.179Z,101563.65
2019-01-25T01:28:21.802Z,101564.88
2019-01-25T01:30:50.473Z,101569.95
2019-01-25T01:33:19.052Z,101565.14
2019-01-25T01:35:47.925Z,101563.77
2019-01-25T01:38:16.612Z,101562.53
2019-01-25T01:40:45.377Z,101571.55
2019-01-25T01:43:13.823Z,101575.87
2019-01-25T01:45:42.398Z,101579.40
2019-01-25T01:48:11.024Z,101571.90
2019-01-25T01:50:39.869Z,101569.55
2019-01-25T01:53:08.564Z,101571.11
2019-01-25T01:55:37.226Z,101573.80
2019-01-25T01:58:05.711Z,101569.45
2019-01-25T02:00:34.502Z,101576.38
2019-01-25T02:03:03.986Z,101576.44
2019-01-25T02:05:32.730Z,101572.80
2019-01-25T02:08:01.340Z,101564.59
2019-01-25T02:10:30.258Z,101571.08
2019-01-25T02:12:58.830Z,101571.31
2019-01-25T02:15:27.844Z,101559.34
2019-01-25T02:17:56.479Z,101556.88
2019-01-25T02:20:30.231Z,101554.57
2019-01-25T02:22:59.039Z,101555.76
2019-01-25T02:25:27.632Z,101551.12
2019-01-25T02:27:56.524Z,101564.11
2019-01-25T02:30:26.643Z,101565.44
2019-01-25T02:32:55.463Z,101565.71
2019-01-25T02:35:24.375Z,101556.93
2019-01-25T02:37:53.141Z,101554.95
2019-01-25T02:40:24.610Z,101556.13
2019-01-25T02:42:53.583Z,101548.56
2019-01-25T02:45:22.263Z,101555.45
2019-01-25T02:47:50.777Z,101561.91
2019-01-25T02:50:20.070Z,101542.97
2019-01-25T02:52:49.015Z,101545.95
2019-01-25T02:55:17.830Z,101552.67
2019-01-25T02:57:46.601Z,101551.52
2019-01-25T03:00:23.182Z,101545.53
2019-01-25T03:02:53.323Z,101543.16
2019-01-25T03:05:22.977Z,101539.25
2019-01-25T03:07:52.221Z,101549.16
2019-01-25T03:10:28.590Z,101552.44
2019-01-25T03:12:53.283Z,101548.70
2019-01-25T03:15:25.215Z,101548.30
2019-01-25T03:17:54.199Z,101550.77
2019-01-25T03:20:24.135Z,101553.11
2019-01-25T03:22:53.047Z,101539.74
2019-01-25T03:25:24.945Z,101540.09
2019-01-25T03:27:53.617Z,101542.75
2019-01-25T03:30:23.645Z,101544.50
2019-01-25T03:32:52.377Z,101539.86
2019-01-25T03:35:23.299Z,101534.48
2019-01-25T03:37:52.593Z,101541.32
2019-01-25T03:40:24.245Z,101545.50
2019-01-25T03:42:53.023Z,101543.91
2019-01-25T03:45:22.711Z,101552.97
2019-01-25T03:47:51.259Z,101553.91
2019-01-25T03:50:23.963Z,101552.55
2019-01-25T03:52:52.467Z,101554.08
2019-01-25T03:55:21.339Z,101552.97
2019-01-25T03:57:49.957Z,101546.69
2019-01-25T04:00:21.026Z,101543.55
2019-01-25T04:02:50.108Z,101543.45
2019-01-25T04:05:19.026Z,101549.16
2019-01-25T04:07:48.395Z,101550.34
2019-01-25T04:10:19.962Z,101549.84
2019-01-25T04:12:48.846Z,101551.17
2019-01-25T04:15:21.424Z,101545.37
2019-01-25T04:17:50.182Z,101541.53
2019-01-25T04:20:19.091Z,101533.89
2019-01-25T04:22:48.072Z,101541.19
2019-01-25T04:25:19.501Z,101549.70
2019-01-25T04:27:48.139Z,101547.42
2019-01-25T04:30:20.606Z,101550.05
2019-01-25T04:32:49.311Z,101548.87
2019-01-25T04:35:17.983Z,101558.72
2019-01-25T04:37:46.926Z,101556.32
2019-01-25T04:40:16.345Z,101547.94
2019-01-25T04:42:45.118Z,101549.81
2019-01-25T04:45:16.458Z,101555.34
2019-01-25T04:47:45.216Z,101558.03
2019-01-25T04:50:19.227Z,101565.39
2019-01-25T04:52:48.456Z,101561.45
2019-01-25T04:55:23.409Z,101561.28
2019-01-25T04:57:52.152Z,101567.27
2019-01-25T05:00:21.946Z,101568.62
2019-01-25T05:02:54.677Z,101575.40
2019-01-25T05:05:23.766Z,101578.00
2019-01-25T05:08:02.085Z,101576.61
2019-01-25T05:10:30.594Z,101571.83
2019-01-25T05:12:59.417Z,101582.73
2019-01-25T05:15:28.437Z,101581.69
2019-01-25T05:17:56.998Z,101573.73
2019-01-25T05:20:26.663Z,101581.03
2019-01-25T05:23:00.495Z,101581.50
2019-01-25T05:25:29.287Z,101575.45
2019-01-25T05:28:09.813Z,101582.07
2019-01-25T05:30:38.688Z,101576.86
2019-01-25T05:33:07.273Z,101576.81
2019-01-25T05:35:36.507Z,101583.02
2019-01-25T05:38:05.174Z,101589.95
2019-01-25T05:40:33.840Z,101591.41
2019-01-25T05:43:02.333Z,101589.56
2019-01-25T05:45:30.822Z,101589.00
2019-01-25T05:47:59.414Z,101584.81
2019-01-25T05:50:27.978Z,101588.83
2019-01-25T05:52:56.602Z,101580.06
2019-01-25T05:55:25.469Z,101582.70
2019-01-25T05:58:00.554Z,101579.26
2019-01-25T06:00:32.690Z,101585.16
2019-01-25T06:03:13.815Z,101588.96
2019-01-25T06:05:42.606Z,101587.47
2019-01-25T06:08:32.747Z,101594.81
2019-01-25T06:11:10.350Z,101592.99
2019-01-25T06:13:40.722Z,101597.56
2019-01-25T06:16:09.407Z,101592.48
2019-01-25T06:18:38.044Z,101592.55
2019-01-25T06:21:06.849Z,101591.08
2019-01-25T06:23:35.419Z,101594.25
2019-01-25T06:26:05.677Z,101587.67
2019-01-25T06:28:34.238Z,101581.67
2019-01-25T06:31:04.596Z,101585.10
2019-01-25T06:33:33.358Z,101583.88
2019-01-25T06:36:02.497Z,101581.16
2019-01-25T06:38:31.039Z,101584.27
2019-01-25T06:40:59.579Z,101588.60
2019-01-25T06:43:28.253Z,101591.06
2019-01-25T06:45:57.044Z,101586.58
2019-01-25T06:48:25.730Z,101584.11
2019-01-25T06:50:54.445Z,101587.47
2019-01-25T06:53:23.077Z,101595.41
2019-01-25T06:55:51.624Z,101582.59
2019-01-25T06:58:29.024Z,101583.41
2019-01-25T07:01:17.084Z,101584.08
2019-01-25T07:03:45.728Z,101587.41
2019-01-25T07:06:14.353Z,101587.41
2019-01-25T07:08:43.060Z,101586.13
2019-01-25T07:11:11.577Z,101584.89
2019-01-25T07:13:40.063Z,101581.87
2019-01-25T07:16:08.696Z,101586.64
2019-01-25T07:18:37.402Z,101590.44
2019-01-25T07:21:06.551Z,101586.50
2019-01-25T07:23:35.267Z,101589.78
2019-01-25T07:26:03.960Z,101590.19
2019-01-25T07:28:32.504Z,101590.28
2019-01-25T07:31:01.057Z,101595.16
2019-01-25T07:33:30.133Z,101593.06
2019-01-25T07:35:58.911Z,101594.84
2019-01-25T07:38:27.989Z,101597.67
2019-01-25T07:40:56.537Z,101598.09
2019-01-25T07:43:25.121Z,101607.72
2019-01-25T07:45:53.663Z,101605.70
2019-01-25T07:48:22.660Z,101603.69
2019-01-25T07:50:51.494Z,101598.30
2019-01-25T07:53:22.138Z,101600.14
2019-01-25T07:55:50.677Z,101596.75
2019-01-25T07:58:19.430Z,101590.55
2019-01-25T08:00:48.190Z,101598.36
2019-01-25T08:03:16.786Z,101603.55
2019-01-25T08:05:45.684Z,101596.72
2019-01-25T08:08:14.388Z,101607.91
2019-01-25T08:10:43.077Z,101595.75
2019-01-25T08:13:11.623Z,101591.90
2019-01-25T08:15:41.619Z,101598.72
2019-01-25T08:18:10.290Z,101602.98
2019-01-25T08:20:39.038Z,101605.40
2019-01-25T08:23:07.677Z,101602.84
2019-01-25T08:25:36.299Z,101597.97
2019-01-25T08:28:04.897Z,101597.80
2019-01-25T08:30:33.605Z,101595.03
2019-01-25T08:33:02.224Z,101592.56
2019-01-25T08:35:30.941Z,101599.55
2019-01-25T08:37:59.827Z,101599.70
2019-01-25T08:40:28.576Z,101598.27
2019-01-25T08:42:57.245Z,101596.72
2019-01-25T08:45:25.829Z,101595.91
2019-01-25T08:47:54.609Z,101590.56
2019-01-25T08:50:23.421Z,101593.48
2019-01-25T08:52:52.400Z,101604.18
2019-01-25T08:55:21.432Z,101605.41
2019-01-25T08:57:51.017Z,101600.94
2019-01-25T09:00:22.036Z,101602.06
2019-01-25T09:02:50.680Z,101604.02
2019-01-25T09:05:20.018Z,101610.07
2019-01-25T09:07:48.851Z,101614.23
2019-01-25T09:10:18.721Z,101606.22
2019-01-25T09:12:47.294Z,101601.73
2019-01-25T09:15:22.811Z,101593.00
2019-01-25T09:17:51.542Z,101596.86
2019-01-25T09:20:20.830Z,101584.12
2019-01-25T09:22:49.445Z,101582.00
2019-01-25T09:25:18.468Z,101587.31
2019-01-25T09:27:47.208Z,101579.33
2019-01-25T09:30:18.895Z,101573.13
2019-01-25T09:32:48.182Z,101562.55
2019-01-25T09:35:17.546Z,101573.04
2019-01-25T09:37:46.772Z,101571.91
2019-01-25T09:40:20.117Z,101572.02
2019-01-25T09:42:48.720Z,101567.31
2019-01-25T09:45:19.135Z,101570.09
2019-01-25T09:47:47.889Z,101574.32
2019-01-25T09:50:18.045Z,101578.17
2019-01-25T09:52:46.769Z,101583.34
2019-01-25T09:55:18.549Z,101579.67
2019-01-25T09:57:47.792Z,101585.28
2019-01-25T10:00:43.827Z,101583.02
2019-01-25T10:03:12.882Z,101585.57
2019-01-25T10:05:41.701Z,101580.46
2019-01-25T10:08:10.407Z,101585.36
2019-01-25T10:10:38.859Z,101573.44
2019-01-25T10:13:07.504Z,101557.20
2019-01-25T10:15:36.061Z,101561.81
2019-01-25T10:18:04.937Z,101565.86
2019-01-25T10:20:33.689Z,101559.31
2019-01-25T10:23:02.358Z,101560.77
2019-01-25T10:25:30.886Z,101562.96
2019-01-25T10:27:59.497Z,101570.80
2019-01-25T10:30:28.511Z,101560.44
2019-01-25T10:32:57.342Z,101561.36
2019-01-25T10:35:26.003Z,101555.69
2019-01-25T10:37:55.211Z,101549.81
2019-01-25T10:40:23.763Z,101550.81
2019-01-25T10:42:53.704Z,101545.73
2019-01-25T10:45:29.108Z,101537.88
2019-01-25T10:47:57.763Z,101529.47
2019-01-25T10:50:26.328Z,101522.84
2019-01-25T10:52:54.949Z,101527.35
2019-01-25T10:55:23.506Z,101524.25
2019-01-25T10:57:52.334Z,101524.84
2019-01-25T11:00:21.069Z,101526.11
2019-01-25T11:02:49.704Z,101513.98
2019-01-25T11:05:21.272Z,101513.83
2019-01-25T11:07:50.015Z,101502.31
2019-01-25T11:10:18.646Z,101500.75
2019-01-25T11:12:47.217Z,101496.23
2019-01-25T11:15:21.348Z,101492.03
2019-01-25T11:17:50.204Z,101493.53
2019-01-25T11:20:20.884Z,101496.95
2019-01-25T11:22:49.461Z,101488.05
2019-01-25T11:25:28.695Z,101491.42
2019-01-25T11:27:57.256Z,101490.30
2019-01-25T11:30:26.295Z,101485.55
2019-01-25T11:32:54.814Z,101482.80
2019-01-25T11:35:23.208Z,101489.22
2019-01-25T11:37:52.423Z,101480.94
2019-01-25T11:40:33.988Z,101479.59
2019-01-25T11:43:08.601Z,101473.38
2019-01-25T11:45:33.224Z,101473.83
2019-01-25T11:48:02.550Z,101465.38
2019-01-25T11:50:30.988Z,101470.30
2019-01-25T11:52:59.541Z,101465.50
2019-01-25T11:55:28.006Z,101468.90
2019-01-25T11:57:56.520Z,101474.72
2019-01-25T12:00:27.371Z,101465.07
2019-01-25T12:02:55.969Z,101463.67
2019-01-25T12:05:24.801Z,101465.33
2019-01-25T12:07:53.969Z,101477.89
2019-01-25T12:10:25.704Z,101469.45
2019-01-25T12:12:54.188Z,101468.55
2019-01-25T12:15:23.369Z,101462.10
2019-01-25T12:17:51.841Z,101457.52
2019-01-25T12:20:28.609Z,101443.79
2019-01-25T12:22:57.281Z,101445.77
2019-01-25T12:25:25.730Z,101433.80
2019-01-25T12:27:54.660Z,101426.97
2019-01-25T12:30:29.692Z,101426.13
2019-01-25T12:32:58.102Z,101432.11
2019-01-25T12:35:28.389Z,101436.47
2019-01-25T12:37:57.072Z,101428.78
2019-01-25T12:40:25.979Z,101432.84
2019-01-25T12:42:54.668Z,101415.37
2019-01-25T12:45:25.446Z,101413.86
2019-01-25T12:47:54.017Z,101412.06
2019-01-25T12:50:33.558Z,101410.44
2019-01-25T12:53:03.806Z,101402.75
2019-01-25T12:55:32.989Z,101404.07
2019-01-25T12:58:01.759Z,101396.33
2019-01-25T13:00:30.332Z,101396.19
2019-01-25T13:02:58.952Z,101401.67
2019-01-25T13:05:28.123Z,101398.93
2019-01-25T13:07:56.861Z,101404.30
2019-01-25T13:10:25.823Z,101399.52
2019-01-25T13:12:54.458Z,101382.87
2019-01-25T13:15:24.433Z,101369.88
2019-01-25T13:17:54.058Z,101367.27
2019-01-25T13:20:25.231Z,101364.05
2019-01-25T13:22:54.481Z,101362.18
2019-01-25T13:25:22.960Z,101356.02
2019-01-25T13:27:51.682Z,101348.79
2019-01-25T13:30:23.855Z,101347.74
2019-01-25T13:32:52.736Z,101337.22
2019-01-25T13:35:21.392Z,101340.17
2019-01-25T13:37:50.011Z,101343.13
2019-01-25T13:40:20.548Z,101348.73
2019-01-25T13:42:49.446Z,101331.09
2019-01-25T13:45:20.410Z,101327.58
2019-01-25T13:47:49.335Z,101328.65
2019-01-25T13:50:21.316Z,101325.72
2019-01-25T13:52:49.890Z,101327.91
2019-01-25T13:55:18.738Z,101321.34
2019-01-25T13:57:47.276Z,101327.84
2019-01-25T14:00:30.311Z,101331.59
2019-01-25T14:02:58.932Z,101329.51
2019-01-25T14:05:27.474Z,101330.57
2019-01-25T14:07:56.205Z,101317.73
2019-01-25T14:10:33.389Z,101321.46
2019-01-25T14:13:01.947Z,101316.62
2019-01-25T14:15:30.942Z,101314.43
2019-01-25T14:17:59.644Z,101310.72
2019-01-25T14:20:30.409Z,101310.45
2019-01-25T14:22:59.235Z,101307.51
2019-01-25T14:25:27.913Z,101309.64
2019-01-25T14:27:56.433Z,101304.80
2019-01-25T14:30:50.682Z,101297.30
2019-01-25T14:33:19.385Z,101301.31
2019-01-25T14:35:47.961Z,101285.23
2019-01-25T14:38:17.408Z,101280.42
2019-01-25T14:40:46.148Z,101280.14
2019-01-25T14:43:14.533Z,101279.86
2019-01-25T14:45:42.944Z,101274.78
2019-01-25T14:48:11.464Z,101275.33
2019-01-25T14:50:39.942Z,101268.12
2019-01-25T14:53:08.940Z,101266.00
2019-01-25T14:55:37.509Z,101271.37
2019-01-25T14:58:06.903Z,101271.79
2019-01-25T15:00:35.565Z,101264.88
2019-01-25T15:03:05.024Z,101262.16
2019-01-25T15:05:33.593Z,101263.75
2019-01-25T15:08:02.504Z,101267.00
2019-01-25T15:10:31.263Z,101261.98
2019-01-25T15:12:59.967Z,101261.42
2019-01-25T15:15:28.636Z,101265.99
2019-01-25T15:17:57.162Z,101254.75
2019-01-25T15:20:28.555Z,101259.53
2019-01-25T15:22:57.314Z,101253.63
2019-01-25T15:25:28.115Z,101247.50
2019-01-25T15:27:56.646Z,101242.94
2019-01-25T15:30:28.610Z,101234.28
2019-01-25T15:32:57.991Z,101240.75
2019-01-25T15:35:27.734Z,101240.20
2019-01-25T15:37:56.383Z,101244.19
2019-01-25T15:40:25.196Z,101246.58
2019-01-25T15:42:54.937Z,101251.45
2019-01-25T15:45:23.542Z,101253.00
2019-01-25T15:47:52.130Z,101254.66
2019-01-25T15:50:26.564Z,101240.17
2019-01-25T15:52:55.111Z,101229.22
2019-01-25T15:55:24.039Z,101230.02
2019-01-25T15:57:53.953Z,101221.64
2019-01-25T16:00:25.103Z,101217.36
2019-01-25T16:02:54.965Z,101217.68
2019-01-25T16:05:24.424Z,101226.29
2019-01-25T16:07:53.166Z,101219.59
2019-01-25T16:10:22.151Z,101218.00
2019-01-25T16:12:51.359Z,101210.51
2019-01-25T16:15:32.929Z,101218.18
2019-01-25T16:18:01.504Z,101223.85
2019-01-25T16:20:30.317Z,101215.55
2019-01-25T16:22:58.975Z,101211.81
2019-01-25T16:25:30.610Z,101216.80
2019-01-25T16:28:00.361Z,101212.56
2019-01-25T16:30:32.076Z,101212.88
2019-01-25T16:33:00.635Z,101201.88
2019-01-25T16:35:29.164Z,101201.90
2019-01-25T16:37:57.909Z,101199.27
2019-01-25T16:40:27.617Z,101202.13
2019-01-25T16:42:56.177Z,101183.99
2019-01-25T16:45:37.432Z,101188.29
2019-01-25T16:48:06.418Z,101178.58
2019-01-25T16:50:35.756Z,101178.88
2019-01-25T16:53:05.816Z,101174.02
2019-01-25T16:55:35.713Z,101185.52
2019-01-25T16:58:05.207Z,101167.37
2019-01-25T17:00:38.606Z,101151.89
2019-01-25T17:03:07.269Z,101141.99
2019-01-25T17:05:36.114Z,101144.60
2019-01-25T17:08:06.778Z,101132.84
2019-01-25T17:10:35.664Z,101129.91
2019-01-25T17:13:05.137Z,101119.61
2019-01-25T17:15:34.006Z,101117.30
2019-01-25T17:18:02.446Z,101102.23
2019-01-25T17:20:31.174Z,101106.75
2019-01-25T17:22:59.619Z,101107.87
2019-01-25T17:25:28.152Z,101105.23
2019-01-25T17:27:56.741Z,101096.20
2019-01-25T17:30:31.574Z,101087.05
2019-01-25T17:33:00.851Z,101072.09
2019-01-25T17:35:30.922Z,101070.44
2019-01-25T17:37:59.662Z,101070.48
2019-01-25T17:40:46.160Z,101068.05
2019-01-25T17:43:09.190Z,101065.63
2019-01-25T17:45:37.766Z,101058.73
2019-01-25T17:48:06.947Z,101054.69
2019-01-25T17:50:35.712Z,101041.38
2019-01-25T17:53:04.400Z,101042.12
2019-01-25T17:55:33.253Z,101040.82
2019-01-25T17:58:08.272Z,101042.72
2019-01-25T18:00:36.841Z,101028.82
2019-01-25T18:03:05.275Z,101021.35
2019-01-25T18:05:34.775Z,101008.80
2019-01-25T18:08:03.588Z,101006.93
2019-01-25T18:10:32.899Z,100990.90
2019-01-25T18:13:01.384Z,100978.38
2019-01-25T18:15:29.899Z,100976.25
2019-01-25T18:17:58.742Z,100964.80
2019-01-25T18:20:27.094Z,100960.20
2019-01-25T18:22:55.608Z,100955.70
2019-01-25T18:25:36.980Z,100941.02
2019-01-25T18:28:08.712Z,100923.41
2019-01-25T18:30:45.864Z,100919.11
2019-01-25T18:33:15.408Z,100915.39
2019-01-25T18:35:43.685Z,100913.27
2019-01-25T18:38:12.211Z,100912.47
2019-01-25T18:40:40.601Z,100902.31
2019-01-25T18:43:09.103Z,100893.24
2019-01-25T18:45:37.637Z,100885.20
2019-01-25T18:48:06.658Z,100881.48
2019-01-25T18:50:35.413Z,100873.21
2019-01-25T18:53:04.134Z,100865.45
2019-01-25T18:55:32.497Z,100863.83
2019-01-25T18:58:01.284Z,100863.31
2019-01-25T19:00:30.677Z,100859.55
2019-01-25T19:02:59.260Z,100845.67
2019-01-25T19:05:28.284Z,100841.38
2019-01-25T19:07:57.624Z,100842.66
2019-01-25T19:10:26.978Z,100840.24
2019-01-25T19:12:55.827Z,100836.00
2019-01-25T19:15:27.467Z,100828.77
2019-01-25T19:17:55.977Z,100825.33
2019-01-25T19:20:24.854Z,100819.96
2019-01-25T19:22:53.492Z,100810.91
2019-01-25T19:25:23.062Z,100812.73
2019-01-25T19:27:51.760Z,100799.13
2019-01-25T19:30:27.960Z,100801.23
2019-01-25T19:32:57.260Z,100797.73
2019-01-25T19:35:26.437Z,100783.05
2019-01-25T19:37:55.940Z,100791.59
2019-01-25T19:40:26.718Z,100783.05
2019-01-25T19:42:55.342Z,100782.97
2019-01-25T19:45:25.263Z,100776.52
2019-01-25T19:47:54.596Z,100766.33
2019-01-25T19:50:23.564Z,100756.68
2019-01-25T19:52:52.274Z,100757.66
2019-01-25T19:55:23.733Z,100757.66
2019-01-25T19:57:53.495Z,100758.30
2019-01-25T20:00:28.793Z,100754.86
2019-01-25T20:02:57.565Z,100753.95
2019-01-25T20:05:27.930Z,100752.98
2019-01-25T20:07:56.664Z,100738.49
2019-01-25T20:10:25.531Z,100737.31
2019-01-25T20:12:54.622Z,100733.76
2019-01-25T20:15:24.671Z,100731.03
2019-01-25T20:17:53.831Z,100731.56
2019-01-25T20:20:26.049Z,100718.99
2019-01-25T20:22:55.820Z,100726.66
2019-01-25T20:25:25.003Z,100724.33
2019-01-25T20:27:54.172Z,100715.97
2019-01-25T20:30:26.554Z,100714.22
2019-01-25T20:32:55.562Z,100707.30
2019-01-25T20:35:30.351Z,100706.53
2019-01-25T20:37:59.144Z,100696.27
2019-01-25T20:40:28.006Z,100692.34
2019-01-25T20:42:56.749Z,100694.80
2019-01-25T20:45:30.432Z,100693.07
2019-01-25T20:47:59.109Z,100682.05
2019-01-25T20:50:29.460Z,100682.81
2019-01-25T20:52:58.201Z,100680.31
2019-01-25T20:55:27.031Z,100673.61
2019-01-25T20:57:57.919Z,100658.69
2019-01-25T21:00:30.492Z,100656.09
2019-01-25T21:02:59.003Z,100664.56
2019-01-25T21:05:27.817Z,100659.73
2019-01-25T21:07:56.454Z,100651.19
2019-01-25T21:10:25.421Z,100644.67
2019-01-25T21:12:54.240Z,100640.86
2019-01-25T21:15:24.036Z,100640.86
2019-01-25T21:17:53.105Z,100630.54
2019-01-25T21:20:31.853Z,100621.81
2019-01-25T21:23:01.032Z,100611.79
2019-01-25T21:25:29.922Z,100607.54
2019-01-25T21:27:58.766Z,100604.27
2019-01-25T21:30:29.989Z,100609.66
2019-01-25T21:32:58.657Z,100613.44
2019-01-25T21:35:27.218Z,100608.38
2019-01-25T21:37:55.807Z,100606.52
2019-01-25T21:40:27.416Z,100612.44
2019-01-25T21:42:55.936Z,100603.94
2019-01-25T21:45:42.890Z,100588.77
2019-01-25T21:48:14.089Z,100579.04
2019-01-25T21:50:44.728Z,100571.85
2019-01-25T21:53:13.338Z,100573.52
2019-01-25T21:55:41.920Z,100572.39
2019-01-25T21:58:10.533Z,100567.16
2019-01-25T22:00:39.097Z,100561.59
2019-01-25T22:03:07.863Z,100555.22
2019-01-25T22:05:36.621Z,100548.64
2019-01-25T22:08:05.947Z,100540.53
2019-01-25T22:10:38.787Z,100536.41
2019-01-25T22:13:07.884Z,100538.34
2019-01-25T22:15:36.477Z,100537.88
2019-01-25T22:18:05.591Z,100532.61
2019-01-25T22:20:34.487Z,100531.64
2019-01-25T22:23:03.399Z,100532.98
2019-01-25T22:25:32.024Z,100530.03
2019-01-25T22:28:00.826Z,100529.42
2019-01-25T22:30:29.461Z,100527.95
2019-01-25T22:32:58.383Z,100524.13
2019-01-25T22:35:28.612Z,100530.70
2019-01-25T22:37:57.265Z,100532.75
2019-01-25T22:40:29.011Z,100535.06
2019-01-25T22:43:00.623Z,100535.91
2019-01-25T22:45:31.047Z,100526.73
2019-01-25T22:48:01.842Z,100521.50
2019-01-25T22:50:33.669Z,100521.30
2019-01-25T22:53:02.342Z,100527.58
2019-01-25T22:55:30.942Z,100538.11
2019-01-25T22:57:59.475Z,100535.33
2019-01-25T23:01:04.837Z,100526.97
2019-01-25T23:04:18.098Z,100518.33
2019-01-25T23:07:18.491Z,100506.28
2019-01-25T23:09:53.254Z,100505.28
2019-01-25T23:12:23.314Z,100497.98
2019-01-25T23:14:51.902Z,100485.56
2019-01-25T23:17:20.470Z,100490.67
2019-01-25T23:19:48.994Z,100489.91
2019-01-25T23:22:17.659Z,100494.97
2019-01-25T23:24:46.131Z,100490.87
2019-01-25T23:27:14.730Z,100484.77
2019-01-25T23:29:43.199Z,100478.55
2019-01-25T23:32:12.144Z,100455.01
2019-01-25T23:34:40.657Z,100449.48
2019-01-25T23:37:09.116Z,100462.76
2019-01-25T23:39:37.672Z,100467.28
2019-01-25T23:42:06.524Z,100448.02
2019-01-25T23:44:35.255Z,100431.92
2019-01-25T23:47:04.284Z,100425.86
2019-01-25T23:49:32.935Z,100446.33
2019-01-25T23:52:01.470Z,100439.94
2019-01-25T23:54:30.316Z,100429.68
2019-01-25T23:56:58.890Z,100453.38
2019-01-25T23:59:27.514Z,100459.93
